sensor_id;sensor_type;location;lat;lon;timestamp;P1;durP1;ratioP1;P2;durP2;ratioP2
14052;SDS011;7101;51.600;7.310;2023-07-02T00:02:20;6.20;;;3.72;;
14052;SDS011;7101;51.600;7.310;2023-07-02T00:04:47;5.55;;;3.50;;
14052;SDS011;7101;51.600;7.310;2023-07-02T00:07:15;4.45;;;3.50;;
14052;SDS011;7101;51.600;7.310;2023-07-02T00:09:42;5.20;;;3.67;;
14052;SDS011;7101;51.600;7.310;2023-07-02T00:12:09;5.93;;;3.58;;
14052;SDS011;7101;51.600;7.310;2023-07-02T00:14:36;6.53;;;3.67;;
14052;SDS011;7101;51.600;7.310;2023-07-02T00:17:06;4.75;;;3.05;;
14052;SDS011;7101;51.600;7.310;2023-07-02T00:19:33;4.57;;;3.40;;
14052;SDS011;7101;51.600;7.310;2023-07-02T00:22:01;5.97;;;3.08;;
14052;SDS011;7101;51.600;7.310;2023-07-02T00:24:28;4.28;;;2.92;;
14052;SDS011;7101;51.600;7.310;2023-07-02T00:26:54;4.43;;;2.97;;
14052;SDS011;7101;51.600;7.310;2023-07-02T00:29:21;4.72;;;3.30;;
14052;SDS011;7101;51.600;7.310;2023-07-02T00:31:48;7.15;;;3.20;;
14052;SDS011;7101;51.600;7.310;2023-07-02T00:34:17;5.60;;;3.30;;
14052;SDS011;7101;51.600;7.310;2023-07-02T00:36:44;4.47;;;3.40;;
14052;SDS011;7101;51.600;7.310;2023-07-02T00:39:12;4.65;;;3.75;;
14052;SDS011;7101;51.600;7.310;2023-07-02T00:41:39;4.75;;;3.20;;
14052;SDS011;7101;51.600;7.310;2023-07-02T00:44:09;6.13;;;3.42;;
14052;SDS011;7101;51.600;7.310;2023-07-02T00:46:38;6.05;;;3.83;;
14052;SDS011;7101;51.600;7.310;2023-07-02T00:49:06;5.20;;;3.35;;
14052;SDS011;7101;51.600;7.310;2023-07-02T00:51:37;5.65;;;3.42;;
14052;SDS011;7101;51.600;7.310;2023-07-02T00:54:04;6.85;;;4.15;;
14052;SDS011;7101;51.600;7.310;2023-07-02T00:56:31;5.63;;;3.45;;
14052;SDS011;7101;51.600;7.310;2023-07-02T00:58:58;4.90;;;3.90;;
14052;SDS011;7101;51.600;7.310;2023-07-02T01:01:26;6.15;;;3.70;;
14052;SDS011;7101;51.600;7.310;2023-07-02T01:03:56;7.32;;;3.78;;
14052;SDS011;7101;51.600;7.310;2023-07-02T01:06:26;5.00;;;3.80;;
14052;SDS011;7101;51.600;7.310;2023-07-02T01:08:57;7.28;;;3.88;;
14052;SDS011;7101;51.600;7.310;2023-07-02T01:11:25;6.88;;;3.58;;
14052;SDS011;7101;51.600;7.310;2023-07-02T01:13:56;7.78;;;4.38;;
14052;SDS011;7101;51.600;7.310;2023-07-02T01:16:27;6.35;;;3.83;;
14052;SDS011;7101;51.600;7.310;2023-07-02T01:18:58;7.28;;;3.80;;
14052;SDS011;7101;51.600;7.310;2023-07-02T01:21:29;8.52;;;4.32;;
14052;SDS011;7101;51.600;7.310;2023-07-02T01:23:57;7.68;;;4.30;;
14052;SDS011;7101;51.600;7.310;2023-07-02T01:26:27;8.60;;;3.88;;
14052;SDS011;7101;51.600;7.310;2023-07-02T01:29:00;9.50;;;4.13;;
14052;SDS011;7101;51.600;7.310;2023-07-02T01:31:37;7.20;;;3.85;;
14052;SDS011;7101;51.600;7.310;2023-07-02T01:34:04;7.63;;;4.18;;
14052;SDS011;7101;51.600;7.310;2023-07-02T01:36:34;7.60;;;3.97;;
14052;SDS011;7101;51.600;7.310;2023-07-02T01:39:02;10.55;;;4.22;;
14052;SDS011;7101;51.600;7.310;2023-07-02T01:41:29;10.48;;;4.00;;
14052;SDS011;7101;51.600;7.310;2023-07-02T01:43:58;7.60;;;3.90;;
14052;SDS011;7101;51.600;7.310;2023-07-02T01:46:24;8.63;;;4.00;;
14052;SDS011;7101;51.600;7.310;2023-07-02T01:48:52;13.40;;;4.38;;
14052;SDS011;7101;51.600;7.310;2023-07-02T01:51:18;7.60;;;3.90;;
14052;SDS011;7101;51.600;7.310;2023-07-02T01:53:47;7.50;;;4.15;;
14052;SDS011;7101;51.600;7.310;2023-07-02T01:56:14;7.22;;;3.83;;
14052;SDS011;7101;51.600;7.310;2023-07-02T01:58:41;8.18;;;3.88;;
14052;SDS011;7101;51.600;7.310;2023-07-02T02:01:08;8.35;;;3.90;;
14052;SDS011;7101;51.600;7.310;2023-07-02T02:03:36;7.35;;;3.75;;
14052;SDS011;7101;51.600;7.310;2023-07-02T02:06:03;10.68;;;4.70;;
14052;SDS011;7101;51.600;7.310;2023-07-02T02:08:30;7.97;;;4.05;;
14052;SDS011;7101;51.600;7.310;2023-07-02T02:10:58;8.50;;;4.25;;
14052;SDS011;7101;51.600;7.310;2023-07-02T02:13:26;6.65;;;4.30;;
14052;SDS011;7101;51.600;7.310;2023-07-02T02:15:53;10.13;;;4.60;;
14052;SDS011;7101;51.600;7.310;2023-07-02T02:18:20;8.43;;;4.40;;
14052;SDS011;7101;51.600;7.310;2023-07-02T02:20:47;11.13;;;5.28;;
14052;SDS011;7101;51.600;7.310;2023-07-02T02:23:14;8.52;;;4.30;;
14052;SDS011;7101;51.600;7.310;2023-07-02T02:25:42;5.97;;;4.05;;
14052;SDS011;7101;51.600;7.310;2023-07-02T02:28:10;11.27;;;4.40;;
14052;SDS011;7101;51.600;7.310;2023-07-02T02:30:37;13.85;;;5.28;;
14052;SDS011;7101;51.600;7.310;2023-07-02T02:33:04;9.65;;;5.18;;
14052;SDS011;7101;51.600;7.310;2023-07-02T02:35:31;9.52;;;5.05;;
14052;SDS011;7101;51.600;7.310;2023-07-02T02:38:02;9.90;;;5.63;;
14052;SDS011;7101;51.600;7.310;2023-07-02T02:40:31;9.02;;;5.25;;
14052;SDS011;7101;51.600;7.310;2023-07-02T02:42:58;10.93;;;5.32;;
14052;SDS011;7101;51.600;7.310;2023-07-02T02:45:29;8.02;;;4.90;;
14052;SDS011;7101;51.600;7.310;2023-07-02T02:47:56;7.97;;;5.00;;
14052;SDS011;7101;51.600;7.310;2023-07-02T02:50:23;9.55;;;5.03;;
14052;SDS011;7101;51.600;7.310;2023-07-02T02:52:50;12.27;;;5.22;;
14052;SDS011;7101;51.600;7.310;2023-07-02T02:55:17;11.50;;;5.75;;
14052;SDS011;7101;51.600;7.310;2023-07-02T02:57:45;7.82;;;5.30;;
14052;SDS011;7101;51.600;7.310;2023-07-02T03:00:12;11.02;;;5.80;;
14052;SDS011;7101;51.600;7.310;2023-07-02T03:02:41;14.95;;;6.95;;
14052;SDS011;7101;51.600;7.310;2023-07-02T03:05:08;11.15;;;6.32;;
14052;SDS011;7101;51.600;7.310;2023-07-02T03:07:35;13.50;;;6.60;;
14052;SDS011;7101;51.600;7.310;2023-07-02T03:10:02;13.30;;;6.70;;
14052;SDS011;7101;51.600;7.310;2023-07-02T03:12:30;10.90;;;6.60;;
14052;SDS011;7101;51.600;7.310;2023-07-02T03:14:57;11.50;;;6.40;;
14052;SDS011;7101;51.600;7.310;2023-07-02T03:17:26;13.75;;;6.30;;
14052;SDS011;7101;51.600;7.310;2023-07-02T03:19:54;16.05;;;6.43;;
14052;SDS011;7101;51.600;7.310;2023-07-02T03:22:22;14.45;;;6.75;;
14052;SDS011;7101;51.600;7.310;2023-07-02T03:24:49;16.38;;;6.57;;
14052;SDS011;7101;51.600;7.310;2023-07-02T03:27:16;10.50;;;6.50;;
14052;SDS011;7101;51.600;7.310;2023-07-02T03:29:43;14.93;;;7.25;;
14052;SDS011;7101;51.600;7.310;2023-07-02T03:32:10;13.48;;;6.55;;
14052;SDS011;7101;51.600;7.310;2023-07-02T03:34:37;15.65;;;7.30;;
14052;SDS011;7101;51.600;7.310;2023-07-02T03:37:07;15.40;;;7.72;;
14052;SDS011;7101;51.600;7.310;2023-07-02T03:39:34;19.88;;;7.97;;
14052;SDS011;7101;51.600;7.310;2023-07-02T03:42:01;11.00;;;7.78;;
14052;SDS011;7101;51.600;7.310;2023-07-02T03:44:31;19.58;;;7.55;;
14052;SDS011;7101;51.600;7.310;2023-07-02T03:46:58;13.13;;;7.47;;
14052;SDS011;7101;51.600;7.310;2023-07-02T03:49:24;15.50;;;7.88;;
14052;SDS011;7101;51.600;7.310;2023-07-02T03:51:57;14.55;;;8.13;;
14052;SDS011;7101;51.600;7.310;2023-07-02T03:54:25;14.70;;;7.75;;
14052;SDS011;7101;51.600;7.310;2023-07-02T03:56:52;16.15;;;8.32;;
14052;SDS011;7101;51.600;7.310;2023-07-02T03:59:19;11.38;;;7.20;;
14052;SDS011;7101;51.600;7.310;2023-07-02T04:01:46;17.70;;;8.18;;
14052;SDS011;7101;51.600;7.310;2023-07-02T04:04:13;16.17;;;8.18;;
14052;SDS011;7101;51.600;7.310;2023-07-02T04:06:40;12.95;;;7.57;;
14052;SDS011;7101;51.600;7.310;2023-07-02T04:09:07;16.10;;;7.47;;
14052;SDS011;7101;51.600;7.310;2023-07-02T04:11:35;16.63;;;7.53;;
14052;SDS011;7101;51.600;7.310;2023-07-02T04:14:02;16.00;;;8.23;;
14052;SDS011;7101;51.600;7.310;2023-07-02T04:16:29;12.52;;;7.28;;
14052;SDS011;7101;51.600;7.310;2023-07-02T04:18:56;14.70;;;7.57;;
14052;SDS011;7101;51.600;7.310;2023-07-02T04:21:23;16.05;;;8.10;;
14052;SDS011;7101;51.600;7.310;2023-07-02T04:23:50;12.43;;;7.55;;
14052;SDS011;7101;51.600;7.310;2023-07-02T04:26:17;13.80;;;7.68;;
14052;SDS011;7101;51.600;7.310;2023-07-02T04:28:45;18.63;;;7.95;;
14052;SDS011;7101;51.600;7.310;2023-07-02T04:31:12;13.63;;;7.55;;
14052;SDS011;7101;51.600;7.310;2023-07-02T04:33:39;11.93;;;7.35;;
14052;SDS011;7101;51.600;7.310;2023-07-02T04:36:07;13.98;;;7.30;;
14052;SDS011;7101;51.600;7.310;2023-07-02T04:38:34;17.17;;;7.68;;
14052;SDS011;7101;51.600;7.310;2023-07-02T04:41:01;16.98;;;7.85;;
14052;SDS011;7101;51.600;7.310;2023-07-02T04:43:30;15.35;;;7.15;;
14052;SDS011;7101;51.600;7.310;2023-07-02T04:45:59;15.80;;;8.35;;
14052;SDS011;7101;51.600;7.310;2023-07-02T04:48:27;14.75;;;7.47;;
14052;SDS011;7101;51.600;7.310;2023-07-02T04:50:54;18.45;;;7.93;;
14052;SDS011;7101;51.600;7.310;2023-07-02T04:53:34;15.30;;;7.88;;
14052;SDS011;7101;51.600;7.310;2023-07-02T04:56:03;13.27;;;7.85;;
14052;SDS011;7101;51.600;7.310;2023-07-02T04:58:30;16.95;;;8.48;;
14052;SDS011;7101;51.600;7.310;2023-07-02T05:01:04;14.38;;;8.07;;
14052;SDS011;7101;51.600;7.310;2023-07-02T05:03:34;19.33;;;8.07;;
14052;SDS011;7101;51.600;7.310;2023-07-02T05:06:01;15.93;;;8.25;;
14052;SDS011;7101;51.600;7.310;2023-07-02T05:08:35;13.43;;;8.15;;
14052;SDS011;7101;51.600;7.310;2023-07-02T05:11:02;17.30;;;8.38;;
14052;SDS011;7101;51.600;7.310;2023-07-02T05:13:29;16.08;;;8.25;;
14052;SDS011;7101;51.600;7.310;2023-07-02T05:15:57;20.45;;;8.80;;
14052;SDS011;7101;51.600;7.310;2023-07-02T05:18:25;15.48;;;8.70;;
14052;SDS011;7101;51.600;7.310;2023-07-02T05:20:54;16.30;;;8.88;;
14052;SDS011;7101;51.600;7.310;2023-07-02T05:23:26;18.52;;;9.98;;
14052;SDS011;7101;51.600;7.310;2023-07-02T05:25:59;16.45;;;9.40;;
14052;SDS011;7101;51.600;7.310;2023-07-02T05:28:25;20.40;;;11.10;;
14052;SDS011;7101;51.600;7.310;2023-07-02T05:30:53;20.10;;;10.30;;
14052;SDS011;7101;51.600;7.310;2023-07-02T05:33:20;18.70;;;11.52;;
14052;SDS011;7101;51.600;7.310;2023-07-02T05:35:54;21.88;;;12.48;;
14052;SDS011;7101;51.600;7.310;2023-07-02T05:38:21;23.58;;;12.10;;
14052;SDS011;7101;51.600;7.310;2023-07-02T05:40:49;23.13;;;13.32;;
14052;SDS011;7101;51.600;7.310;2023-07-02T05:43:18;23.30;;;12.75;;
14052;SDS011;7101;51.600;7.310;2023-07-02T05:45:49;28.10;;;13.48;;
14052;SDS011;7101;51.600;7.310;2023-07-02T05:48:25;21.75;;;13.48;;
14052;SDS011;7101;51.600;7.310;2023-07-02T05:50:53;24.80;;;13.18;;
14052;SDS011;7101;51.600;7.310;2023-07-02T05:53:21;22.48;;;12.60;;
14052;SDS011;7101;51.600;7.310;2023-07-02T05:55:50;21.70;;;13.35;;
14052;SDS011;7101;51.600;7.310;2023-07-02T05:58:17;22.30;;;13.48;;
14052;SDS011;7101;51.600;7.310;2023-07-02T06:00:45;24.17;;;13.02;;
14052;SDS011;7101;51.600;7.310;2023-07-02T06:03:16;21.98;;;12.48;;
14052;SDS011;7101;51.600;7.310;2023-07-02T06:05:46;19.83;;;11.75;;
14052;SDS011;7101;51.600;7.310;2023-07-02T06:08:17;22.25;;;12.55;;
14052;SDS011;7101;51.600;7.310;2023-07-02T06:10:45;22.05;;;12.38;;
14052;SDS011;7101;51.600;7.310;2023-07-02T06:13:13;21.92;;;10.73;;
14052;SDS011;7101;51.600;7.310;2023-07-02T06:15:41;20.15;;;10.77;;
14052;SDS011;7101;51.600;7.310;2023-07-02T06:18:10;16.77;;;10.07;;
14052;SDS011;7101;51.600;7.310;2023-07-02T06:20:37;15.80;;;9.75;;
14052;SDS011;7101;51.600;7.310;2023-07-02T06:23:04;17.52;;;9.20;;
14052;SDS011;7101;51.600;7.310;2023-07-02T06:25:34;20.45;;;9.80;;
14052;SDS011;7101;51.600;7.310;2023-07-02T06:28:09;18.13;;;9.63;;
14052;SDS011;7101;51.600;7.310;2023-07-02T06:30:37;17.15;;;9.68;;
14052;SDS011;7101;51.600;7.310;2023-07-02T06:33:04;20.08;;;9.30;;
14052;SDS011;7101;51.600;7.310;2023-07-02T06:35:33;17.25;;;9.25;;
14052;SDS011;7101;51.600;7.310;2023-07-02T06:38:00;16.65;;;9.38;;
14052;SDS011;7101;51.600;7.310;2023-07-02T06:40:27;18.10;;;9.25;;
14052;SDS011;7101;51.600;7.310;2023-07-02T06:42:55;18.27;;;9.50;;
14052;SDS011;7101;51.600;7.310;2023-07-02T06:45:22;15.35;;;8.50;;
14052;SDS011;7101;51.600;7.310;2023-07-02T06:47:49;18.73;;;8.80;;
14052;SDS011;7101;51.600;7.310;2023-07-02T06:50:16;18.92;;;9.65;;
14052;SDS011;7101;51.600;7.310;2023-07-02T06:52:43;20.55;;;9.00;;
14052;SDS011;7101;51.600;7.310;2023-07-02T06:55:10;14.98;;;8.27;;
14052;SDS011;7101;51.600;7.310;2023-07-02T06:57:41;18.15;;;8.77;;
14052;SDS011;7101;51.600;7.310;2023-07-02T07:00:14;22.67;;;8.93;;
14052;SDS011;7101;51.600;7.310;2023-07-02T07:02:41;15.50;;;7.95;;
14052;SDS011;7101;51.600;7.310;2023-07-02T07:05:08;13.63;;;8.25;;
14052;SDS011;7101;51.600;7.310;2023-07-02T07:07:38;13.40;;;7.80;;
14052;SDS011;7101;51.600;7.310;2023-07-02T07:10:05;14.93;;;7.90;;
14052;SDS011;7101;51.600;7.310;2023-07-02T07:12:33;15.43;;;8.15;;
14052;SDS011;7101;51.600;7.310;2023-07-02T07:15:01;16.40;;;8.20;;
14052;SDS011;7101;51.600;7.310;2023-07-02T07:17:30;15.18;;;7.97;;
14052;SDS011;7101;51.600;7.310;2023-07-02T07:19:57;13.52;;;7.97;;
14052;SDS011;7101;51.600;7.310;2023-07-02T07:22:25;16.67;;;8.15;;
14052;SDS011;7101;51.600;7.310;2023-07-02T07:24:52;15.45;;;8.32;;
14052;SDS011;7101;51.600;7.310;2023-07-02T07:27:19;14.88;;;8.50;;
14052;SDS011;7101;51.600;7.310;2023-07-02T07:29:46;16.63;;;8.27;;
14052;SDS011;7101;51.600;7.310;2023-07-02T07:32:13;16.45;;;8.00;;
14052;SDS011;7101;51.600;7.310;2023-07-02T07:34:41;17.95;;;8.40;;
14052;SDS011;7101;51.600;7.310;2023-07-02T07:37:08;14.88;;;8.25;;
14052;SDS011;7101;51.600;7.310;2023-07-02T07:39:36;15.52;;;8.35;;
14052;SDS011;7101;51.600;7.310;2023-07-02T07:42:03;13.63;;;7.75;;
14052;SDS011;7101;51.600;7.310;2023-07-02T07:44:30;16.92;;;7.85;;
14052;SDS011;7101;51.600;7.310;2023-07-02T07:46:57;17.23;;;8.85;;
14052;SDS011;7101;51.600;7.310;2023-07-02T07:49:24;15.40;;;7.97;;
14052;SDS011;7101;51.600;7.310;2023-07-02T07:51:53;13.77;;;7.53;;
14052;SDS011;7101;51.600;7.310;2023-07-02T07:54:20;16.38;;;7.80;;
14052;SDS011;7101;51.600;7.310;2023-07-02T07:56:47;13.30;;;7.88;;
14052;SDS011;7101;51.600;7.310;2023-07-02T07:59:14;14.65;;;8.48;;
14052;SDS011;7101;51.600;7.310;2023-07-02T08:01:43;18.15;;;8.00;;
14052;SDS011;7101;51.600;7.310;2023-07-02T08:04:12;15.95;;;7.65;;
14052;SDS011;7101;51.600;7.310;2023-07-02T08:06:39;16.15;;;7.78;;
14052;SDS011;7101;51.600;7.310;2023-07-02T08:09:09;12.95;;;7.90;;
14052;SDS011;7101;51.600;7.310;2023-07-02T08:11:37;16.35;;;7.88;;
14052;SDS011;7101;51.600;7.310;2023-07-02T08:14:06;14.52;;;7.47;;
14052;SDS011;7101;51.600;7.310;2023-07-02T08:16:35;14.68;;;7.97;;
14052;SDS011;7101;51.600;7.310;2023-07-02T08:19:02;13.95;;;7.47;;
14052;SDS011;7101;51.600;7.310;2023-07-02T08:21:29;14.50;;;7.53;;
14052;SDS011;7101;51.600;7.310;2023-07-02T08:23:58;15.20;;;7.47;;
14052;SDS011;7101;51.600;7.310;2023-07-02T08:26:30;12.18;;;7.38;;
14052;SDS011;7101;51.600;7.310;2023-07-02T08:29:03;15.45;;;7.72;;
14052;SDS011;7101;51.600;7.310;2023-07-02T08:31:30;14.77;;;7.20;;
14052;SDS011;7101;51.600;7.310;2023-07-02T08:33:57;12.65;;;7.00;;
14052;SDS011;7101;51.600;7.310;2023-07-02T08:36:24;11.95;;;7.40;;
14052;SDS011;7101;51.600;7.310;2023-07-02T08:38:51;13.60;;;7.57;;
14052;SDS011;7101;51.600;7.310;2023-07-02T08:41:20;11.30;;;6.95;;
14052;SDS011;7101;51.600;7.310;2023-07-02T08:43:54;13.43;;;7.78;;
14052;SDS011;7101;51.600;7.310;2023-07-02T08:46:21;15.07;;;7.65;;
14052;SDS011;7101;51.600;7.310;2023-07-02T08:48:50;17.48;;;7.65;;
14052;SDS011;7101;51.600;7.310;2023-07-02T08:51:17;17.88;;;8.30;;
14052;SDS011;7101;51.600;7.310;2023-07-02T08:53:44;17.33;;;7.90;;
14052;SDS011;7101;51.600;7.310;2023-07-02T08:56:13;14.35;;;7.88;;
14052;SDS011;7101;51.600;7.310;2023-07-02T08:58:42;13.70;;;7.78;;
14052;SDS011;7101;51.600;7.310;2023-07-02T09:01:12;14.15;;;7.03;;
14052;SDS011;7101;51.600;7.310;2023-07-02T09:03:40;15.48;;;7.18;;
14052;SDS011;7101;51.600;7.310;2023-07-02T09:06:08;14.07;;;7.53;;
14052;SDS011;7101;51.600;7.310;2023-07-02T09:08:39;15.75;;;7.65;;
14052;SDS011;7101;51.600;7.310;2023-07-02T09:11:06;18.25;;;7.97;;
14052;SDS011;7101;51.600;7.310;2023-07-02T09:13:46;13.35;;;7.25;;
14052;SDS011;7101;51.600;7.310;2023-07-02T09:16:24;15.75;;;7.65;;
14052;SDS011;7101;51.600;7.310;2023-07-02T09:18:58;12.10;;;6.63;;
14052;SDS011;7101;51.600;7.310;2023-07-02T09:21:37;12.32;;;6.53;;
14052;SDS011;7101;51.600;7.310;2023-07-02T09:24:13;12.52;;;6.32;;
14052;SDS011;7101;51.600;7.310;2023-07-02T09:26:45;14.95;;;6.13;;
14052;SDS011;7101;51.600;7.310;2023-07-02T09:29:16;11.80;;;6.60;;
14052;SDS011;7101;51.600;7.310;2023-07-02T09:31:48;12.88;;;6.30;;
14052;SDS011;7101;51.600;7.310;2023-07-02T09:34:15;13.23;;;6.43;;
14052;SDS011;7101;51.600;7.310;2023-07-02T09:36:44;12.90;;;5.95;;
14052;SDS011;7101;51.600;7.310;2023-07-02T09:39:12;10.27;;;5.75;;
14052;SDS011;7101;51.600;7.310;2023-07-02T09:41:41;10.95;;;6.18;;
14052;SDS011;7101;51.600;7.310;2023-07-02T09:44:08;15.13;;;6.60;;
14052;SDS011;7101;51.600;7.310;2023-07-02T09:46:40;11.40;;;6.13;;
14052;SDS011;7101;51.600;7.310;2023-07-02T09:49:20;12.52;;;6.70;;
14052;SDS011;7101;51.600;7.310;2023-07-02T09:51:48;12.95;;;6.05;;
14052;SDS011;7101;51.600;7.310;2023-07-02T09:54:17;15.50;;;6.25;;
14052;SDS011;7101;51.600;7.310;2023-07-02T09:56:47;10.93;;;5.75;;
14052;SDS011;7101;51.600;7.310;2023-07-02T09:59:14;14.05;;;6.00;;
14052;SDS011;7101;51.600;7.310;2023-07-02T10:01:41;11.55;;;6.82;;
14052;SDS011;7101;51.600;7.310;2023-07-02T10:04:14;10.73;;;6.05;;
14052;SDS011;7101;51.600;7.310;2023-07-02T10:06:46;13.25;;;6.53;;
14052;SDS011;7101;51.600;7.310;2023-07-02T10:09:15;14.00;;;6.45;;
14052;SDS011;7101;51.600;7.310;2023-07-02T10:11:42;15.40;;;6.70;;
14052;SDS011;7101;51.600;7.310;2023-07-02T10:14:11;12.80;;;6.28;;
14052;SDS011;7101;51.600;7.310;2023-07-02T10:16:53;11.45;;;5.80;;
14052;SDS011;7101;51.600;7.310;2023-07-02T10:19:22;12.07;;;6.30;;
14052;SDS011;7101;51.600;7.310;2023-07-02T10:22:01;12.93;;;6.45;;
14052;SDS011;7101;51.600;7.310;2023-07-02T10:24:29;14.00;;;6.30;;
14052;SDS011;7101;51.600;7.310;2023-07-02T10:26:59;11.13;;;5.95;;
14052;SDS011;7101;51.600;7.310;2023-07-02T10:29:28;13.52;;;6.07;;
14052;SDS011;7101;51.600;7.310;2023-07-02T10:31:56;12.68;;;5.97;;
14052;SDS011;7101;51.600;7.310;2023-07-02T10:34:31;10.43;;;5.82;;
14052;SDS011;7101;51.600;7.310;2023-07-02T10:37:07;14.77;;;6.43;;
14052;SDS011;7101;51.600;7.310;2023-07-02T10:39:38;13.35;;;5.53;;
14052;SDS011;7101;51.600;7.310;2023-07-02T10:42:13;11.10;;;6.05;;
14052;SDS011;7101;51.600;7.310;2023-07-02T10:44:46;9.98;;;5.22;;
14052;SDS011;7101;51.600;7.310;2023-07-02T10:47:18;11.50;;;6.00;;
14052;SDS011;7101;51.600;7.310;2023-07-02T10:49:49;11.75;;;5.75;;
14052;SDS011;7101;51.600;7.310;2023-07-02T10:52:17;8.30;;;5.28;;
14052;SDS011;7101;51.600;7.310;2023-07-02T10:54:45;12.05;;;5.90;;
14052;SDS011;7101;51.600;7.310;2023-07-02T10:57:14;11.95;;;6.32;;
14052;SDS011;7101;51.600;7.310;2023-07-02T10:59:46;10.40;;;5.72;;
14052;SDS011;7101;51.600;7.310;2023-07-02T11:02:13;12.05;;;6.07;;
14052;SDS011;7101;51.600;7.310;2023-07-02T11:04:40;12.77;;;5.88;;
14052;SDS011;7101;51.600;7.310;2023-07-02T11:07:21;12.93;;;5.45;;
14052;SDS011;7101;51.600;7.310;2023-07-02T11:09:50;14.40;;;5.95;;
14052;SDS011;7101;51.600;7.310;2023-07-02T11:12:18;12.65;;;6.13;;
14052;SDS011;7101;51.600;7.310;2023-07-02T11:14:53;11.13;;;6.05;;
14052;SDS011;7101;51.600;7.310;2023-07-02T11:17:24;11.77;;;5.88;;
14052;SDS011;7101;51.600;7.310;2023-07-02T11:19:53;11.23;;;5.85;;
14052;SDS011;7101;51.600;7.310;2023-07-02T11:22:21;10.80;;;5.72;;
14052;SDS011;7101;51.600;7.310;2023-07-02T11:25:08;9.25;;;5.22;;
14052;SDS011;7101;51.600;7.310;2023-07-02T11:27:35;13.02;;;6.15;;
14052;SDS011;7101;51.600;7.310;2023-07-02T11:30:03;9.95;;;5.78;;
14052;SDS011;7101;51.600;7.310;2023-07-02T11:32:31;10.23;;;5.55;;
14052;SDS011;7101;51.600;7.310;2023-07-02T11:35:13;9.30;;;5.63;;
14052;SDS011;7101;51.600;7.310;2023-07-02T11:37:44;11.23;;;6.13;;
14052;SDS011;7101;51.600;7.310;2023-07-02T11:40:13;12.18;;;5.40;;
14052;SDS011;7101;51.600;7.310;2023-07-02T11:42:40;10.43;;;5.70;;
14052;SDS011;7101;51.600;7.310;2023-07-02T11:45:09;14.13;;;6.55;;
14052;SDS011;7101;51.600;7.310;2023-07-02T11:47:37;11.50;;;5.30;;
14052;SDS011;7101;51.600;7.310;2023-07-02T11:50:05;12.88;;;5.70;;
14052;SDS011;7101;51.600;7.310;2023-07-02T11:52:33;11.27;;;5.63;;
14052;SDS011;7101;51.600;7.310;2023-07-02T11:55:01;10.68;;;5.43;;
14052;SDS011;7101;51.600;7.310;2023-07-02T11:57:28;8.90;;;5.20;;
14052;SDS011;7101;51.600;7.310;2023-07-02T11:59:55;10.55;;;5.63;;
14052;SDS011;7101;51.600;7.310;2023-07-02T12:02:25;9.73;;;5.57;;
14052;SDS011;7101;51.600;7.310;2023-07-02T12:04:52;10.25;;;5.32;;
14052;SDS011;7101;51.600;7.310;2023-07-02T12:07:19;12.88;;;5.90;;
14052;SDS011;7101;51.600;7.310;2023-07-02T12:09:45;8.77;;;5.15;;
14052;SDS011;7101;51.600;7.310;2023-07-02T12:12:16;12.27;;;5.20;;
14052;SDS011;7101;51.600;7.310;2023-07-02T12:14:43;11.50;;;5.10;;
14052;SDS011;7101;51.600;7.310;2023-07-02T12:17:10;9.77;;;4.72;;
14052;SDS011;7101;51.600;7.310;2023-07-02T12:19:38;10.90;;;5.18;;
14052;SDS011;7101;51.600;7.310;2023-07-02T12:22:05;8.80;;;4.93;;
14052;SDS011;7101;51.600;7.310;2023-07-02T12:24:33;11.48;;;4.55;;
14052;SDS011;7101;51.600;7.310;2023-07-02T12:27:00;11.57;;;5.00;;
14052;SDS011;7101;51.600;7.310;2023-07-02T12:29:29;8.70;;;4.90;;
14052;SDS011;7101;51.600;7.310;2023-07-02T12:31:56;11.50;;;5.05;;
14052;SDS011;7101;51.600;7.310;2023-07-02T12:34:25;9.05;;;4.72;;
14052;SDS011;7101;51.600;7.310;2023-07-02T12:36:54;11.35;;;5.40;;
14052;SDS011;7101;51.600;7.310;2023-07-02T12:39:21;10.27;;;5.07;;
14052;SDS011;7101;51.600;7.310;2023-07-02T12:41:48;11.10;;;5.50;;
14052;SDS011;7101;51.600;7.310;2023-07-02T12:44:15;9.68;;;5.55;;
14052;SDS011;7101;51.600;7.310;2023-07-02T12:46:45;9.90;;;4.95;;
14052;SDS011;7101;51.600;7.310;2023-07-02T12:49:12;9.63;;;4.90;;
14052;SDS011;7101;51.600;7.310;2023-07-02T12:51:39;8.70;;;4.85;;
14052;SDS011;7101;51.600;7.310;2023-07-02T12:54:06;12.07;;;5.47;;
14052;SDS011;7101;51.600;7.310;2023-07-02T12:56:33;10.93;;;5.18;;
14052;SDS011;7101;51.600;7.310;2023-07-02T12:59:01;9.60;;;5.40;;
14052;SDS011;7101;51.600;7.310;2023-07-02T13:01:28;10.93;;;5.20;;
14052;SDS011;7101;51.600;7.310;2023-07-02T13:03:57;7.97;;;4.80;;
14052;SDS011;7101;51.600;7.310;2023-07-02T13:06:24;9.57;;;4.80;;
14052;SDS011;7101;51.600;7.310;2023-07-02T13:08:52;9.77;;;5.03;;
14052;SDS011;7101;51.600;7.310;2023-07-02T13:11:20;11.32;;;5.18;;
14052;SDS011;7101;51.600;7.310;2023-07-02T13:13:49;8.45;;;5.20;;
14052;SDS011;7101;51.600;7.310;2023-07-02T13:16:17;9.25;;;5.05;;
14052;SDS011;7101;51.600;7.310;2023-07-02T13:18:52;9.82;;;5.32;;
14052;SDS011;7101;51.600;7.310;2023-07-02T13:21:23;12.52;;;5.55;;
14052;SDS011;7101;51.600;7.310;2023-07-02T13:23:52;10.25;;;5.90;;
14052;SDS011;7101;51.600;7.310;2023-07-02T13:26:19;9.45;;;4.90;;
14052;SDS011;7101;51.600;7.310;2023-07-02T13:28:53;9.32;;;4.97;;
14052;SDS011;7101;51.600;7.310;2023-07-02T13:31:21;14.60;;;5.40;;
14052;SDS011;7101;51.600;7.310;2023-07-02T13:33:48;16.10;;;5.70;;
14052;SDS011;7101;51.600;7.310;2023-07-02T13:36:16;12.93;;;5.63;;
14052;SDS011;7101;51.600;7.310;2023-07-02T13:38:51;11.30;;;5.40;;
14052;SDS011;7101;51.600;7.310;2023-07-02T13:41:20;10.35;;;5.20;;
14052;SDS011;7101;51.600;7.310;2023-07-02T13:43:47;13.50;;;5.07;;
14052;SDS011;7101;51.600;7.310;2023-07-02T13:46:17;10.45;;;5.65;;
14052;SDS011;7101;51.600;7.310;2023-07-02T13:48:44;9.43;;;4.97;;
14052;SDS011;7101;51.600;7.310;2023-07-02T13:51:12;12.75;;;5.50;;
14052;SDS011;7101;51.600;7.310;2023-07-02T13:53:41;9.68;;;5.55;;
14052;SDS011;7101;51.600;7.310;2023-07-02T13:56:15;14.02;;;5.57;;
14052;SDS011;7101;51.600;7.310;2023-07-02T14:01:15;10.70;;;5.80;;
14052;SDS011;7101;51.600;7.310;2023-07-02T14:03:42;9.05;;;5.18;;
14052;SDS011;7101;51.600;7.310;2023-07-02T14:06:09;12.80;;;6.05;;
14052;SDS011;7101;51.600;7.310;2023-07-02T14:08:36;17.13;;;6.55;;
14052;SDS011;7101;51.600;7.310;2023-07-02T14:11:03;14.63;;;6.03;;
14052;SDS011;7101;51.600;7.310;2023-07-02T14:13:31;12.93;;;6.47;;
14052;SDS011;7101;51.600;7.310;2023-07-02T14:16:00;12.50;;;5.97;;
14052;SDS011;7101;51.600;7.310;2023-07-02T14:18:28;14.48;;;7.03;;
14052;SDS011;7101;51.600;7.310;2023-07-02T14:20:55;10.07;;;5.70;;
14052;SDS011;7101;51.600;7.310;2023-07-02T14:23:22;14.20;;;6.22;;
14052;SDS011;7101;51.600;7.310;2023-07-02T14:25:49;12.88;;;6.10;;
14052;SDS011;7101;51.600;7.310;2023-07-02T14:28:16;15.18;;;6.65;;
14052;SDS011;7101;51.600;7.310;2023-07-02T14:30:44;14.65;;;6.75;;
14052;SDS011;7101;51.600;7.310;2023-07-02T14:33:17;11.05;;;6.45;;
14052;SDS011;7101;51.600;7.310;2023-07-02T14:35:46;11.82;;;6.45;;
14052;SDS011;7101;51.600;7.310;2023-07-02T14:38:15;14.13;;;6.68;;
14052;SDS011;7101;51.600;7.310;2023-07-02T14:40:43;13.75;;;6.53;;
14052;SDS011;7101;51.600;7.310;2023-07-02T14:43:10;11.90;;;6.53;;
14052;SDS011;7101;51.600;7.310;2023-07-02T14:45:42;11.80;;;6.63;;
14052;SDS011;7101;51.600;7.310;2023-07-02T14:48:11;14.65;;;6.95;;
14052;SDS011;7101;51.600;7.310;2023-07-02T14:50:42;11.80;;;6.60;;
14052;SDS011;7101;51.600;7.310;2023-07-02T14:53:10;14.80;;;6.50;;
14052;SDS011;7101;51.600;7.310;2023-07-02T14:55:38;13.40;;;7.03;;
14052;SDS011;7101;51.600;7.310;2023-07-02T14:58:07;13.95;;;6.50;;
14052;SDS011;7101;51.600;7.310;2023-07-02T15:00:35;15.60;;;7.00;;
14052;SDS011;7101;51.600;7.310;2023-07-02T15:03:02;12.98;;;6.90;;